Flight Track Log - Related Links

Times and Time Zones

All times are in EDT time to prevent confusion due to time zone crossing. See the ASQ6115 flight status page for this flight to view local times or setup timezone preferences in your user account.

Time Position Orientation Groundspeed Altitude Reporting Facility
EDT Latitude Longitude Course Direction KTS MPH feet Rate Location/Type
Sun 08:25:21 PM 43.0053 -89.2933 162° South 214 246 6,000  Level Chicago Center
Sun 08:26:00 PM 42.8739 -89.2239 144° Southeast  Level FlightAware Approximate
Sun 08:26:22 PM 42.9150 -89.2550 163° South 283 326 9,000  Level Chicago Center
Sun 08:27:00 PM 42.8090 -89.1981 170° South  Level FlightAware Approximate
Sun 08:27:24 PM 42.8344 -89.2211 163° South 299 344 11,300  Level Chicago Center
Sun 08:28:00 PM 42.7422 -89.1798 162° South  Level FlightAware Approximate
Sun 08:28:26 PM 42.7442 -89.1842 163° South 333 383 12,500  Level Chicago Center
Sun 08:29:00 PM 42.6693 -89.1474 162° South  Level FlightAware Approximate
Sun 08:29:28 PM 42.6525 -89.1450 163° South 344 396 13,000  Level Chicago Center
Sun 08:30:30 PM 42.5664 -89.0981 158° South 339 390 12,300 -871 Descending Chicago Center
Sun 08:31:32 PM 42.4981 -88.9997 133° Southeast 312 359 11,200 -720 Descending Chicago Center
Sun 08:32:35 PM 42.4939 -88.8897 93° East 291 335 10,800 -768 Descending Chicago Center
Sun 08:33:37 PM 42.5047 -88.7814 82° East 289 333 9,600 -871 Descending Chicago Center
Sun 08:34:39 PM 42.4850 -88.6781 104° East 301 346 9,000 -290 Descending Chicago Center
Sun 08:35:41 PM 42.4439 -88.5794 119° Southeast 303 349 9,000  Level Chicago Center
Sun 08:36:43 PM 42.3958 -88.4700 121° Southeast 294 338 9,000 -242 Level Chicago Center
Sun 08:37:45 PM 42.3572 -88.3764 119° Southeast 288 331 8,500 -532 Descending Chicago Center
Sun 08:38:47 PM 42.3144 -88.3014 128° Southeast 286 329 7,900 -968 Descending Chicago Center
Sun 08:39:49 PM 42.2425 -88.2211 140° Southeast 282 325 6,500 -1,306 Descending Chicago Center
Sun 08:40:51 PM 42.1861 -88.1542 139° Southeast 274 315 5,200 -1,016 Descending Chicago Center
Sun 08:41:53 PM 42.1319 -88.0925 140° Southeast 261 300 4,400 -1,146 Descending Chicago Center
Sun 08:42:20 PM 42.1000 -88.0667 149° Southeast 232 267 3,500 -1,310 Descending Chicago TRACON
Sun 08:43:20 PM 42.0667 -88.0167 132° Southeast 197 227 2,500 -887 Descending Chicago TRACON
Sun 08:44:15 PM 42.0333 -87.9833 143° Southeast 149 171 1,800 -764 Descending Chicago TRACON

Login

Don't have an account? Register now (free) for customized features, flight alerts, and more!